Time;durP1;ratioP1;P1;durP2;ratioP2;P2;SDS_P1;SDS_P2;PMS_P1;PMS_P2;Temp;Humidity;BMP_temperature;BMP_pressure;BME280_temperature;BME280_humidity;BME280_pressure;Samples;Min_cycle;Max_cycle;Signal;HPM_P1;HPM_P2
2022/01/11 00:00:44;;;;;;;237.63;25.40;;;;;;;-0.10;86.78;102988.56;5097401;28;20064;-74
2022/01/11 00:03:18;;;;;;;114.38;20.45;;;;;;;-0.12;86.87;102983.28;5098041;28;20509;-73
2022/01/11 00:05:54;;;;;;;202.82;22.05;;;;;;;-0.12;86.82;102988.47;5098009;28;20060;-70
2022/01/11 00:08:30;;;;;;;113.03;19.25;;;;;;;-0.11;86.98;102998.03;5094519;28;20048;-72
2022/01/11 00:11:06;;;;;;;114.88;19.60;;;;;;;-0.12;86.84;103003.16;5090473;28;20088;-72
2022/01/11 00:13:37;;;;;;;77.22;19.00;;;;;;;-0.12;87.02;103000.56;5090046;28;20049;-71
2022/01/11 00:16:07;;;;;;;215.95;23.25;;;;;;;-0.12;86.96;103017.00;5097066;28;20045;-71
2022/01/11 00:18:34;;;;;;;109.78;21.10;;;;;;;-0.09;87.17;103021.44;5096217;28;20045;-73
2022/01/11 00:21:03;;;;;;;134.00;21.77;;;;;;;-0.09;87.00;103013.66;5096636;28;20510;-73
2022/01/11 00:25:58;;;;;;;180.40;20.90;;;;;;;-0.10;87.01;103023.16;5096541;28;20496;-70
2022/01/11 00:28:26;;;;;;;168.15;21.38;;;;;;;-0.10;87.01;103015.38;5085849;28;20045;-69
2022/01/11 00:31:12;;;;;;;100.30;18.75;;;;;;;-0.11;86.88;103018.78;5091700;28;20048;-72
2022/01/11 00:33:43;;;;;;;118.60;17.40;;;;;;;-0.13;86.93;103016.94;5087479;28;20041;-71
2022/01/11 00:36:11;;;;;;;83.03;17.70;;;;;;;-0.13;86.98;103023.00;5095759;28;20057;-71
2022/01/11 00:38:41;;;;;;;60.38;15.60;;;;;;;-0.10;87.23;103024.88;5093485;28;20120;-71
2022/01/11 00:41:12;;;;;;;49.20;14.80;;;;;;;-0.07;87.15;103023.31;5094232;28;20087;-71
2022/01/11 00:43:41;;;;;;;70.28;15.38;;;;;;;-0.05;87.04;103018.19;5092815;28;20041;-71
2022/01/11 00:46:10;;;;;;;64.95;14.68;;;;;;;-0.05;86.94;103024.25;5087390;28;20494;-71
2022/01/11 00:48:39;;;;;;;145.02;15.15;;;;;;;-0.05;86.86;103024.25;5097270;28;20045;-71
2022/01/11 00:51:10;;;;;;;67.43;15.43;;;;;;;-0.06;86.81;103027.69;5095394;28;20053;-73
2022/01/11 00:53:40;;;;;;;61.58;16.23;;;;;;;-0.06;87.00;103025.09;5090295;28;20467;-71
2022/01/11 00:56:09;;;;;;;37.30;14.27;;;;;;;-0.01;87.05;103030.53;5096266;28;20037;-71
2022/01/11 00:58:36;;;;;;;122.45;14.82;;;;;;;0.01;87.02;103015.00;5093687;28;20071;-71
2022/01/11 01:01:03;;;;;;;75.75;15.15;;;;;;;-0.01;86.90;103025.31;5092876;28;20495;-73
2022/01/11 01:03:29;;;;;;;112.32;15.25;;;;;;;-0.05;86.74;103013.88;5095052;28;20052;-73
2022/01/11 01:05:56;;;;;;;91.45;14.95;;;;;;;-0.08;86.67;103012.84;5097217;28;20155;-73
2022/01/11 01:08:26;;;;;;;60.63;15.32;;;;;;;-0.11;86.79;103018.78;5096231;28;20083;-73
2022/01/11 01:10:54;;;;;;;77.30;15.95;;;;;;;-0.09;86.90;103029.22;5094727;28;20122;-73
2022/01/11 01:13:27;;;;;;;48.67;15.45;;;;;;;-0.07;86.98;103028.50;5094438;28;20048;-73
2022/01/11 01:15:58;;;;;;;;;;;;;;;-0.07;87.19;103033.69;5107187;28;20048;-73
2022/01/11 01:18:36;;;;;;;35.08;14.80;;;;;;;-0.03;87.17;103033.00;5095871;28;19935;-72
2022/01/11 01:21:04;;;;;;;74.72;15.73;;;;;;;-0.01;87.00;103038.28;5087842;28;20502;-76
2022/01/11 01:23:31;;;;;;;45.42;14.25;;;;;;;-0.01;86.69;103046.94;5090257;28;20051;-75
2022/01/11 01:25:59;;;;;;;40.83;16.05;;;;;;;0.03;86.85;103055.75;5091217;28;20040;-74
2022/01/11 01:28:25;;;;;;;69.07;16.60;;;;;;;0.05;87.12;103064.53;5097340;28;20049;-75
2022/01/11 01:30:55;;;;;;;42.10;16.58;;;;;;;0.07;86.87;103067.19;5087882;28;20641;-75
2022/01/11 01:33:22;;;;;;;39.00;16.40;;;;;;;0.09;87.08;103070.75;5082341;28;20041;-74
2022/01/11 01:35:56;;;;;;;55.17;16.27;;;;;;;0.10;86.82;103068.22;5094350;28;20136;-75
2022/01/11 01:38:25;;;;;;;31.58;15.90;;;;;;;0.11;86.68;103070.00;5097457;28;20040;-75
2022/01/11 01:40:59;;;;;;;32.58;15.20;;;;;;;0.12;86.77;103068.31;5086921;28;20049;-73
2022/01/11 01:43:27;;;;;;;;;;;;;;;0.10;86.76;103070.81;5094768;28;20053;-73
2022/01/11 01:45:58;;;;;;;48.15;14.82;;;;;;;0.09;86.75;103069.06;5089693;28;19925;-71
2022/01/11 01:48:25;;;;;;;38.10;15.48;;;;;;;0.09;86.80;103075.94;5095759;28;20056;-72
2022/01/11 01:50:52;;;;;;;53.80;15.55;;;;;;;0.08;86.85;103082.84;5087290;28;20056;-72
2022/01/11 01:53:20;;;;;;;37.00;16.50;;;;;;;0.08;86.83;103080.25;5093477;28;20082;-74
2022/01/11 01:55:47;;;;;;;65.82;17.15;;;;;;;0.09;86.75;103075.94;5095817;28;20044;-75
2022/01/11 01:58:15;;;;;;;60.22;17.40;;;;;;;0.08;86.58;103077.66;5079406;28;20889;-75
2022/01/11 02:00:50;;;;;;;37.70;16.70;;;;;;;0.06;86.58;103068.00;5089218;28;20110;-75
2022/01/11 02:03:26;;;;;;;57.13;16.40;;;;;;;0.02;86.43;103069.53;5112017;28;20059;-74
2022/01/11 02:05:55;;;;;;;60.42;17.67;;;;;;;-0.01;86.40;103066.81;5095075;28;20075;-75
2022/01/11 02:08:25;;;;;;;71.20;17.63;;;;;;;-0.02;86.51;103071.09;5085473;28;20106;-76
2022/01/11 02:10:54;;;;;;;75.75;19.27;;;;;;;-0.02;86.55;103058.13;5095994;28;20045;-75
2022/01/11 02:13:21;;;;;;;79.32;18.10;;;;;;;-0.05;86.50;103065.75;5093237;28;20055;-73
2022/01/11 02:15:50;;;;;;;64.38;18.55;;;;;;;-0.06;86.84;103070.88;5087566;28;20157;-73
2022/01/11 02:18:22;;;;;;;70.20;18.13;;;;;;;-0.06;86.67;103076.97;5058314;28;20052;-73
2022/01/11 02:20:55;;;;;;;;;;;;;;;-0.07;86.65;103074.28;5075421;28;20136;-73
2022/01/11 02:23:28;;;;;;;41.25;18.40;;;;;;;-0.05;86.90;103072.66;5110575;28;20047;-73
2022/01/11 02:25:57;;;;;;;53.22;18.23;;;;;;;-0.02;86.90;103071.09;5094845;28;20073;-74
2022/01/11 02:28:27;;;;;;;48.08;18.02;;;;;;;0.00;86.68;103071.19;5094848;28;20072;-74
2022/01/11 02:30:56;;;;;;;48.85;19.38;;;;;;;0.01;86.70;103069.47;5084619;28;20055;-71
2022/01/11 02:33:37;;;;;;;42.22;18.95;;;;;;;0.03;86.75;103080.84;5092012;28;20052;-73
2022/01/11 02:36:30;;;;;;;42.95;19.08;;;;;;;0.05;86.87;103084.41;5082080;28;20038;-73
2022/01/11 02:39:06;;;;;;;59.65;19.88;;;;;;;0.06;86.72;103089.66;5091244;28;20465;-72
2022/01/11 02:41:33;;;;;;;53.10;19.73;;;;;;;0.06;86.80;103092.25;5091078;28;20192;-75
2022/01/11 02:44:05;;;;;;;58.72;20.08;;;;;;;0.06;86.76;103086.16;5093606;28;20044;-73
2022/01/11 02:46:32;;;;;;;35.22;18.65;;;;;;;0.06;86.76;103094.84;5090884;28;20441;-73
2022/01/11 02:49:01;;;;;;;34.63;15.68;;;;;;;0.07;86.87;103099.22;5093338;28;20048;-73
2022/01/11 02:51:34;;;;;;;29.23;14.85;;;;;;;0.08;86.67;103092.31;5089499;28;20060;-72
2022/01/11 02:54:02;;;;;;;32.95;15.65;;;;;;;0.09;86.55;103095.00;5093354;28;20051;-72
2022/01/11 02:56:29;;;;;;;41.88;15.65;;;;;;;0.07;86.63;103096.63;5081002;28;20048;-74
2022/01/11 02:58:58;;;;;;;43.78;15.10;;;;;;;0.04;86.48;103091.28;5089517;28;20044;-72
2022/01/11 03:01:25;;;;;;;35.28;16.27;;;;;;;0.04;86.74;103086.09;5089265;28;20391;-73
2022/01/11 03:03:53;;;;;;;29.85;15.20;;;;;;;0.08;86.75;103094.91;5095364;28;20491;-74
2022/01/11 03:06:22;;;;;;;30.10;15.05;;;;;;;0.09;86.74;103089.81;5090943;28;20056;-72
2022/01/11 03:08:49;;;;;;;31.15;15.32;;;;;;;0.11;86.65;103092.47;5089973;28;20053;-72
2022/01/11 03:11:21;;;;;;;31.90;14.57;;;;;;;0.11;86.75;103085.56;5091259;28;20056;-72
2022/01/11 03:13:49;;;;;;;31.70;14.40;;;;;;;0.09;86.25;103089.81;5088680;28;20045;-71
2022/01/11 03:16:17;;;;;;;32.95;14.95;;;;;;;0.04;86.06;103091.28;5092140;28;20064;-71
2022/01/11 03:18:46;;;;;;;26.75;13.95;;;;;;;-0.01;86.18;103084.97;5097766;28;20064;-71
2022/01/11 03:21:15;;;;;;;33.30;13.73;;;;;;;-0.06;86.22;103079.56;5077095;28;20228;-71
2022/01/11 03:23:43;;;;;;;34.95;14.25;;;;;;;-0.06;86.28;103084.75;5090947;28;20557;-71
2022/01/11 03:26:10;;;;;;;32.97;13.95;;;;;;;-0.08;86.35;103083.78;5095613;28;20438;-70
2022/01/11 03:28:39;;;;;;;39.67;14.20;;;;;;;-0.09;86.25;103086.28;5094356;28;20047;-69
2022/01/11 03:31:06;;;;;;;25.88;13.15;;;;;;;-0.11;86.34;103098.31;5095566;28;20499;-71
2022/01/11 03:33:42;;;;;;;27.55;13.07;;;;;;;-0.12;86.33;103104.28;5094710;28;20052;-68
2022/01/11 03:36:08;;;;;;;32.17;13.73;;;;;;;-0.14;86.25;103108.50;5089760;28;20468;-68
2022/01/11 03:38:36;;;;;;;30.25;13.98;;;;;;;-0.15;86.40;103115.38;5096564;28;20099;-68
2022/01/11 03:41:08;;;;;;;28.20;14.02;;;;;;;-0.16;86.53;103114.50;5096162;28;20478;-71
2022/01/11 03:43:35;;;;;;;25.83;13.80;;;;;;;-0.12;86.44;103122.44;5084664;28;20597;-71
2022/01/11 03:46:04;;;;;;;27.30;12.90;;;;;;;-0.10;86.54;103123.44;5079181;28;20499;-71
2022/01/11 03:48:31;;;;;;;24.48;12.55;;;;;;;-0.11;86.43;103125.09;5092036;28;20051;-71
2022/01/11 03:50:58;;;;;;;25.17;12.68;;;;;;;-0.11;86.39;103130.28;5095867;28;20041;-72
2022/01/11 03:53:51;;;;;;;21.45;12.35;;;;;;;-0.11;86.60;103113.84;5090311;28;20446;-72
2022/01/11 03:56:21;;;;;;;22.55;11.77;;;;;;;-0.10;86.60;103113.94;5094023;28;20103;-71
2022/01/11 03:58:56;;;;;;;22.98;12.05;;;;;;;-0.11;86.50;103109.56;5089639;28;20076;-71
2022/01/11 04:01:23;;;;;;;23.58;12.68;;;;;;;-0.11;86.33;103119.03;5091670;28;20052;-72
2022/01/11 04:03:50;;;;;;;23.55;12.38;;;;;;;-0.12;86.27;103110.34;5096511;28;20059;-71
2022/01/11 04:06:17;;;;;;;23.45;12.20;;;;;;;-0.11;86.43;103106.97;5076858;28;20053;-72
2022/01/11 04:08:46;;;;;;;26.00;12.82;;;;;;;-0.11;86.39;103112.16;5090638;28;20051;-72
2022/01/11 04:11:16;;;;;;;22.77;12.82;;;;;;;-0.11;86.13;103111.28;5079366;28;20085;-72
2022/01/11 04:13:43;;;;;;;30.27;14.15;;;;;;;-0.12;86.13;103114.66;5088743;28;20450;-71
2022/01/11 04:16:11;;;;;;;24.58;13.63;;;;;;;-0.17;86.12;103110.13;5096509;28;20079;-65
2022/01/11 04:18:37;;;;;;;27.08;14.95;;;;;;;-0.21;85.87;103113.41;5095668;28;20558;-67
2022/01/11 04:21:05;;;;;;;30.52;15.48;;;;;;;-0.23;85.96;103111.53;5085767;28;20091;-69
2022/01/11 04:23:34;;;;;;;33.35;15.88;;;;;;;-0.26;86.10;103116.56;5087121;28;20040;-69
2022/01/11 04:26:01;;;;;;;26.90;15.50;;;;;;;-0.26;86.07;103120.03;5081223;28;20525;-69
2022/01/11 04:28:32;;;;;;;30.65;16.20;;;;;;;-0.29;85.92;103114.69;5087885;28;20055;-70
2022/01/11 04:31:01;;;;;;;28.52;16.33;;;;;;;-0.30;86.25;103110.31;5088705;28;20048;-70
2022/01/11 04:33:32;;;;;;;34.55;16.02;;;;;;;-0.29;86.29;103124.19;5090884;28;20466;-69
2022/01/11 04:36:01;;;;;;;44.33;18.58;;;;;;;-0.28;86.13;103121.66;5112732;28;20046;-70
2022/01/11 04:38:31;;;;;;;51.83;19.77;;;;;;;-0.31;85.97;103121.53;5087420;28;20645;-70
2022/01/11 04:40:59;;;;;;;49.97;20.27;;;;;;;-0.33;86.19;103123.13;5088228;28;20098;-71
2022/01/11 04:43:32;;;;;;;39.90;20.35;;;;;;;-0.34;86.42;103119.63;5091473;28;20048;-70
2022/01/11 04:45:59;;;;;;;49.97;21.58;;;;;;;-0.33;86.37;103126.59;5094596;28;20128;-70
2022/01/11 04:48:29;;;;;;;49.55;21.83;;;;;;;-0.31;86.38;103126.69;5091793;28;20052;-71
2022/01/11 04:50:56;;;;;;;52.28;24.00;;;;;;;-0.33;86.33;103134.38;5090136;28;20040;-72
2022/01/11 04:53:23;;;;;;;65.28;24.92;;;;;;;-0.34;86.51;103131.72;5089357;28;20500;-71
2022/01/11 04:55:49;;;;;;;51.83;24.58;;;;;;;-0.32;86.61;103124.91;5091877;28;20045;-72
2022/01/11 04:58:17;;;;;;;56.47;24.17;;;;;;;-0.28;86.74;103123.38;5087525;28;20570;-71
2022/01/11 05:00:44;;;;;;;47.90;22.92;;;;;;;-0.26;86.61;103122.63;5089366;28;20152;-69
2022/01/11 05:03:11;;;;;;;51.25;23.17;;;;;;;-0.27;86.52;103130.34;5094021;28;20102;-70
2022/01/11 05:05:40;;;;;;;45.97;21.77;;;;;;;-0.27;86.34;103130.34;5091157;28;20095;-71
2022/01/11 05:08:07;;;;;;;50.05;20.30;;;;;;;-0.29;86.24;103121.59;5087861;28;20064;-70
2022/01/11 05:10:33;;;;;;;46.85;18.85;;;;;;;-0.30;86.24;103123.28;5078656;28;20044;-71
2022/01/11 05:13:00;;;;;;;36.25;18.45;;;;;;;-0.31;86.40;103118.94;5088846;28;20045;-73
2022/01/11 05:15:28;;;;;;;49.55;19.17;;;;;;;-0.31;86.48;103116.34;5091534;28;20071;-71
2022/01/11 05:17:56;;;;;;;45.28;19.75;;;;;;;-0.29;86.46;103113.81;5090256;28;20044;-72
2022/01/11 05:20:25;;;;;;;38.65;18.00;;;;;;;-0.27;86.48;103117.38;5090186;28;20048;-72
2022/01/11 05:22:52;;;;;;;40.45;18.33;;;;;;;-0.28;86.46;103115.59;5087985;28;20620;-72
2022/01/11 05:25:20;;;;;;;37.13;17.85;;;;;;;-0.27;86.54;103114.78;5086285;28;20399;-73
2022/01/11 05:27:47;;;;;;;41.58;17.65;;;;;;;-0.27;86.43;103117.38;5095001;28;20072;-74
2022/01/11 05:30:17;;;;;;;37.20;16.98;;;;;;;-0.29;86.44;103119.00;5093342;28;20041;-73
2022/01/11 05:32:44;;;;;;;33.83;16.27;;;;;;;-0.32;86.00;103124.91;5086348;28;20471;-68
2022/01/11 05:35:13;;;;;;;34.53;15.95;;;;;;;-0.36;86.04;103129.06;5091512;28;20055;-71
2022/01/11 05:37:40;;;;;;;30.80;15.95;;;;;;;-0.38;86.23;103129.78;5083415;28;20048;-72
2022/01/11 05:40:09;;;;;;;28.63;15.13;;;;;;;-0.38;86.41;103130.69;5095641;28;20040;-70
2022/01/11 05:42:37;;;;;;;45.70;15.95;;;;;;;-0.36;86.20;103136.84;5094740;28;20079;-71
2022/01/11 05:45:07;;;;;;;31.67;15.73;;;;;;;-0.39;86.10;103143.53;5095956;28;20044;-69
2022/01/11 05:47:34;;;;;;;31.60;15.55;;;;;;;-0.41;86.25;103140.00;5090240;28;20080;-73
2022/01/11 05:50:05;;;;;;;37.92;14.80;;;;;;;-0.44;86.03;103153.66;5095111;28;20066;-70
2022/01/11 05:52:33;;;;;;;32.95;14.63;;;;;;;-0.46;85.95;103147.53;5110123;28;20052;-73
2022/01/11 05:55:00;;;;;;;35.00;15.90;;;;;;;-0.48;85.89;103146.56;5090716;28;20049;-71
2022/01/11 05:57:27;;;;;;;50.65;16.10;;;;;;;-0.49;86.09;103148.25;5094347;28;20087;-69
2022/01/11 05:59:54;;;;;;;34.78;15.65;;;;;;;-0.51;86.17;103149.84;5084813;28;20057;-70
2022/01/11 06:02:21;;;;;;;33.17;14.10;;;;;;;-0.49;86.79;103149.97;5088617;28;20079;-70
2022/01/11 06:04:49;;;;;;;35.95;14.52;;;;;;;-0.48;86.21;103151.75;5093354;28;20045;-70
2022/01/11 06:07:15;;;;;;;27.35;14.15;;;;;;;-0.50;86.02;103148.19;5089981;28;20443;-69
2022/01/11 06:09:42;;;;;;;27.58;14.18;;;;;;;-0.52;85.77;103147.19;5089277;28;20045;-68
2022/01/11 06:12:09;;;;;;;28.10;13.95;;;;;;;-0.54;85.79;103151.41;5095633;28;20049;-68
2022/01/11 06:14:37;;;;;;;23.15;12.23;;;;;;;-0.55;85.75;103153.13;5079547;28;20040;-68
2022/01/11 06:17:04;;;;;;;21.23;12.15;;;;;;;-0.49;85.82;103158.59;5082156;28;20037;-68
2022/01/11 06:19:31;;;;;;;22.83;13.05;;;;;;;-0.45;85.32;103158.78;5094316;28;20036;-73
2022/01/11 06:22:09;;;;;;;27.63;12.65;;;;;;;-0.43;85.33;103165.81;5083717;28;20052;-69
2022/01/11 06:24:36;;;;;;;22.70;12.85;;;;;;;-0.44;84.93;103165.75;5085029;28;20036;-69
2022/01/11 06:27:04;;;;;;;24.08;12.93;;;;;;;-0.45;84.89;103163.97;5091061;28;20052;-70
2022/01/11 06:29:31;;;;;;;22.23;12.32;;;;;;;-0.46;84.71;103173.47;5088799;28;20470;-70
2022/01/11 06:31:57;;;;;;;21.27;13.07;;;;;;;-0.52;84.55;103179.19;5106623;28;20068;-71
2022/01/11 06:34:24;;;;;;;22.83;13.80;;;;;;;-0.58;84.46;103175.38;5088208;28;20032;-72
2022/01/11 06:36:51;;;;;;;24.35;12.90;;;;;;;-0.62;84.75;103187.28;5091652;28;20505;-73
2022/01/11 06:39:18;;;;;;;26.40;13.63;;;;;;;-0.67;84.88;103187.06;5085485;28;20113;-72
2022/01/11 06:41:45;;;;;;;27.00;13.65;;;;;;;-0.71;85.08;103185.09;5090718;28;20183;-71
2022/01/11 06:44:15;;;;;;;35.60;21.08;;;;;;;-0.72;85.29;103193.66;5088958;28;20137;-71
2022/01/11 06:46:43;;;;;;;32.05;18.20;;;;;;;-0.71;85.18;103197.16;5092436;28;20056;-72
2022/01/11 06:49:14;;;;;;;25.83;14.77;;;;;;;-0.72;85.40;103206.63;5094242;28;20505;-72
2022/01/11 06:51:41;;;;;;;28.00;14.93;;;;;;;-0.74;85.28;103197.88;5088953;28;20045;-72
2022/01/11 06:54:09;;;;;;;27.75;15.07;;;;;;;-0.74;85.27;103199.59;5093228;28;20071;-72
2022/01/11 06:56:36;;;;;;;27.63;13.52;;;;;;;-0.77;85.39;103202.91;5088019;28;20115;-73
2022/01/11 06:59:07;;;;;;;30.17;14.43;;;;;;;-0.78;85.54;103203.72;5093805;28;20056;-73
2022/01/11 07:01:35;;;;;;;29.35;14.98;;;;;;;-0.79;85.36;103205.38;5112894;28;20052;-73
2022/01/11 07:04:07;;;;;;;27.45;14.15;;;;;;;-0.82;85.63;103210.44;5089714;28;20051;-73
2022/01/11 07:06:42;;;;;;;29.55;14.52;;;;;;;-0.81;85.69;103211.31;5095644;28;20059;-73
2022/01/11 07:09:09;;;;;;;28.90;14.30;;;;;;;-0.83;85.70;103221.59;5090894;28;20051;-73
2022/01/11 07:11:37;;;;;;;29.75;15.20;;;;;;;-0.83;85.71;103231.94;5081581;28;20045;-73
2022/01/11 07:14:04;;;;;;;33.05;15.25;;;;;;;-0.86;85.50;103230.84;5097182;28;20140;-73
2022/01/11 07:16:32;;;;;;;32.05;17.02;;;;;;;-0.90;85.62;103226.34;5080629;28;20061;-73
2022/01/11 07:19:01;;;;;;;103.45;48.25;;;;;;;-0.92;85.54;103233.13;5087518;28;20140;-72
2022/01/11 07:21:27;;;;;;;43.10;22.98;;;;;;;-0.93;86.08;103229.66;5091555;28;20052;-72
2022/01/11 07:23:54;;;;;;;47.38;27.05;;;;;;;-0.94;85.62;103233.06;5087825;28;20485;-72
2022/01/11 07:26:22;;;;;;;44.67;25.02;;;;;;;-0.91;85.82;103234.91;5091508;28;20049;-72
2022/01/11 07:28:49;;;;;;;36.33;21.65;;;;;;;-0.91;85.61;103250.44;5096650;28;20400;-73
2022/01/11 07:31:18;;;;;;;50.70;34.92;;;;;;;-0.90;85.51;103249.66;5096605;28;20040;-72
2022/01/11 07:33:49;;;;;;;39.20;21.33;;;;;;;-0.89;85.74;103243.66;5093666;28;20462;-73
2022/01/11 07:36:16;;;;;;;41.67;24.30;;;;;;;-0.89;85.70;103247.13;5086591;28;20041;-72
2022/01/11 07:38:47;;;;;;;54.22;33.33;;;;;;;-0.88;85.69;103238.56;5082572;28;20048;-73
2022/01/11 07:41:20;;;;;;;35.75;18.95;;;;;;;-0.85;85.65;103248.19;5086740;28;20487;-73
2022/01/11 07:44:03;;;;;;;51.20;25.38;;;;;;;-0.85;85.71;103238.75;5092275;28;20454;-73
2022/01/11 07:46:36;;;;;;;79.20;44.83;;;;;;;-0.81;85.79;103247.56;5096773;28;20044;-73
2022/01/11 07:49:07;;;;;;;108.13;76.28;;;;;;;-0.80;85.66;103252.81;5093542;28;20565;-73
2022/01/11 07:51:35;;;;;;;41.92;21.20;;;;;;;-0.82;85.73;103251.88;5096695;28;20410;-73
2022/01/11 07:54:06;;;;;;;42.60;21.48;;;;;;;-0.79;85.63;103258.91;5090175;28;20415;-74
2022/01/11 07:56:34;;;;;;;37.40;18.52;;;;;;;-0.79;85.47;103259.78;5087543;28;20132;-73
2022/01/11 07:59:02;;;;;;;39.42;17.00;;;;;;;-0.76;85.57;103263.38;5080975;28;20515;-74
2022/01/11 08:01:34;;;;;;;38.33;16.67;;;;;;;-0.75;85.52;103257.38;5078948;28;20053;-72
2022/01/11 08:04:03;;;;;;;39.83;16.42;;;;;;;-0.73;85.68;103251.47;5089666;28;20036;-74
2022/01/11 08:06:35;;;;;;;39.10;17.05;;;;;;;-0.71;85.49;103255.03;5096686;28;21860;-73
2022/01/11 08:09:16;;;;;;;36.03;15.63;;;;;;;-0.70;85.29;103263.69;5096449;28;20048;-73
2022/01/11 08:11:44;;;;;;;41.88;15.30;;;;;;;-0.71;85.26;103265.41;5085410;28;20049;-74
2022/01/11 08:14:11;;;;;;;40.00;17.27;;;;;;;-0.66;85.42;103265.66;5108522;28;20144;-73
2022/01/11 08:16:39;;;;;;;335.60;125.30;;;;;;;-0.65;85.10;103255.38;5091194;28;20076;-73
2022/01/11 08:19:06;;;;;;;292.30;95.85;;;;;;;-0.62;85.22;103262.44;5095102;28;20047;-73
2022/01/11 08:21:33;;;;;;;64.60;29.02;;;;;;;-0.59;85.21;103257.41;5078751;28;20041;-73
2022/01/11 08:24:01;;;;;;;46.88;21.83;;;;;;;-0.55;85.15;103259.38;5091353;28;20061;-73
2022/01/11 08:26:28;;;;;;;43.95;20.02;;;;;;;-0.52;85.24;103267.31;5094589;28;20043;-72
2022/01/11 08:28:56;;;;;;;43.72;17.00;;;;;;;-0.48;85.17;103260.59;5096406;28;20058;-73
2022/01/11 08:31:23;;;;;;;44.63;18.85;;;;;;;-0.45;85.00;103263.34;5096265;28;20040;-74
2022/01/11 08:33:53;;;;;;;38.90;17.17;;;;;;;-0.44;84.98;103262.53;5088447;28;20481;-73
2022/01/11 08:36:21;;;;;;;34.13;15.25;;;;;;;-0.38;84.99;103269.75;5079316;28;20049;-74
2022/01/11 08:38:47;;;;;;;39.33;16.35;;;;;;;-0.34;85.09;103262.22;5087583;28;20071;-74
2022/01/11 08:41:14;;;;;;;115.38;41.50;;;;;;;-0.28;84.66;103256.47;5095677;28;20049;-74
2022/01/11 08:43:41;;;;;;;97.60;49.70;;;;;;;-0.24;84.42;103252.31;5097608;28;20498;-74
2022/01/11 08:46:08;;;;;;;44.72;22.70;;;;;;;-0.20;84.64;103256.88;5087442;28;20043;-74
2022/01/11 08:48:54;;;;;;;44.08;23.65;;;;;;;-0.14;84.34;103259.78;5075578;28;20056;-73
2022/01/11 08:51:21;;;;;;;41.30;19.85;;;;;;;-0.11;84.14;103257.38;5081623;28;20140;-73
2022/01/11 08:53:48;;;;;;;46.78;20.13;;;;;;;-0.09;84.16;103260.94;5095553;28;20479;-74
2022/01/11 08:56:17;;;;;;;36.17;16.08;;;;;;;-0.05;84.24;103252.47;5095976;28;20532;-73
2022/01/11 08:58:45;;;;;;;40.38;17.52;;;;;;;-0.01;84.07;103259.63;5095081;28;20049;-73
2022/01/11 09:01:15;;;;;;;39.08;16.48;;;;;;;0.03;83.99;103267.59;5095690;28;20049;-73
2022/01/11 09:03:43;;;;;;;36.40;15.52;;;;;;;0.02;83.76;103273.56;5095353;28;20045;-73
2022/01/11 09:06:11;;;;;;;43.63;19.73;;;;;;;-0.03;83.68;103271.63;5093171;28;20498;-73
2022/01/11 09:08:39;;;;;;;35.38;15.55;;;;;;;-0.05;83.94;103274.94;5078958;28;20049;-73
2022/01/11 09:11:06;;;;;;;35.05;17.23;;;;;;;-0.10;83.65;103279.91;5090049;28;20419;-74
2022/01/11 09:13:36;;;;;;;34.33;14.75;;;;;;;-0.13;83.83;103276.25;5089520;28;20049;-74
2022/01/11 09:16:07;;;;;;;48.50;25.00;;;;;;;-0.13;83.79;103274.53;5095375;28;20045;-75
2022/01/11 09:18:36;;;;;;;73.57;43.25;;;;;;;-0.13;83.84;103273.66;5094840;28;20052;-74
2022/01/11 09:21:04;;;;;;;88.78;55.40;;;;;;;-0.10;83.97;103277.31;5086468;28;20075;-74
2022/01/11 09:23:32;;;;;;;50.42;26.70;;;;;;;-0.10;83.99;103284.22;5086426;28;20079;-74
2022/01/11 09:25:59;;;;;;;36.90;20.42;;;;;;;-0.07;83.73;103285.25;5091816;28;20140;-74
2022/01/11 09:28:26;;;;;;;46.38;20.73;;;;;;;-0.05;83.61;103282.72;5089062;28;20136;-74
2022/01/11 09:30:53;;;;;;;33.47;14.93;;;;;;;-0.01;83.57;103287.28;5096054;28;20099;-74
2022/01/11 09:33:20;;;;;;;34.33;14.35;;;;;;;-0.01;83.80;103270.00;5094993;28;20114;-74
2022/01/11 09:35:48;;;;;;;37.88;15.57;;;;;;;0.02;83.55;103286.53;5091894;28;20045;-74
2022/01/11 09:38:18;;;;;;;41.70;17.30;;;;;;;0.08;83.56;103292.03;5093075;28;20128;-76
2022/01/11 09:40:52;;;;;;;35.50;15.27;;;;;;;0.20;83.62;103294.41;5088411;28;20047;-76
2022/01/11 09:43:23;;;;;;;35.22;15.20;;;;;;;0.33;83.30;103298.53;5093191;28;20056;-74
2022/01/11 09:45:53;;;;;;;32.35;13.98;;;;;;;0.43;83.17;103309.44;5090195;28;20090;-76
2022/01/11 09:48:27;;;;;;;33.60;14.25;;;;;;;0.50;83.07;103308.06;5078881;28;20139;-75
2022/01/11 09:50:56;;;;;;;32.67;14.90;;;;;;;0.60;82.99;103307.72;5084850;28;20496;-75
2022/01/11 09:53:24;;;;;;;31.27;14.82;;;;;;;0.74;82.68;103315.31;5093290;28;20057;-76
2022/01/11 09:55:52;;;;;;;32.08;14.80;;;;;;;0.89;82.39;103317.78;5094660;28;20045;-74
2022/01/11 09:58:22;;;;;;;36.50;16.23;;;;;;;0.99;82.10;103307.03;5093189;28;20154;-76
2022/01/11 10:00:50;;;;;;;28.05;13.82;;;;;;;1.08;81.75;103306.56;5095213;28;20055;-75
2022/01/11 10:04:14;;;;;;;29.55;13.73;;;;;;;1.18;81.60;103307.91;5094081;28;20060;-74
2022/01/11 10:07:09;;;;;;;39.78;22.48;;;;;;;1.28;81.54;103310.13;5042571;28;20144;-74
2022/01/11 10:09:49;;;;;;;34.30;17.23;;;;;;;1.37;81.25;103307.09;5084969;28;20052;-72
2022/01/11 10:12:19;;;;;;;31.45;14.45;;;;;;;1.44;81.14;103308.25;5094373;28;20051;-72
2022/01/11 10:14:57;;;;;;;30.52;16.10;;;;;;;1.51;80.73;103312.94;5086470;28;20048;-74
2022/01/11 10:17:27;;;;;;;35.53;17.67;;;;;;;1.59;80.63;103313.28;5087948;28;20749;-73
2022/01/11 10:20:07;;;;;;;32.67;21.95;;;;;;;1.73;80.45;103317.44;5093668;28;20109;-73
2022/01/11 10:23:02;;;;;;;26.55;13.52;;;;;;;1.86;80.09;103313.66;5078766;28;20132;-74
2022/01/11 10:25:44;;;;;;;33.10;13.00;;;;;;;1.98;79.72;103310.75;5082803;28;20073;-73
2022/01/11 10:28:11;;;;;;;25.35;13.30;;;;;;;2.07;79.44;103313.75;5076272;28;20041;-73
2022/01/11 10:30:42;;;;;;;28.83;13.82;;;;;;;2.17;79.37;103302.94;5094543;28;20056;-72
2022/01/11 10:33:10;;;;;;;28.77;13.02;;;;;;;2.29;79.29;103302.56;5094451;28;20049;-72
2022/01/11 10:35:44;;;;;;;29.27;14.98;;;;;;;2.45;79.05;103304.13;5094693;28;20452;-72
2022/01/11 10:38:39;;;;;;;29.30;14.25;;;;;;;2.66;78.79;103292.84;5079706;28;20502;-72
2022/01/11 10:41:43;;;;;;;29.75;15.57;;;;;;;2.86;78.47;103300.59;5092016;28;20052;-70
2022/01/11 10:44:54;;;;;;;35.45;23.60;;;;;;;2.98;78.20;103303.72;5085795;28;20055;-71
2022/01/11 10:47:34;;;;;;;26.42;13.52;;;;;;;3.11;78.43;103298.13;5090099;28;20049;-71
2022/01/11 10:50:26;;;;;;;24.38;12.55;;;;;;;3.24;78.45;103301.25;5085865;28;20780;-72
2022/01/11 10:52:55;;;;;;;24.67;12.15;;;;;;;3.25;77.49;103303.03;5085153;28;20057;-71
2022/01/11 10:55:29;;;;;;;25.58;12.48;;;;;;;3.16;77.90;103313.09;5094400;28;20063;-71
2022/01/11 10:58:08;;;;;;;25.50;13.10;;;;;;;3.06;78.19;103306.59;5094475;28;20114;-71
2022/01/11 11:00:50;;;;;;;27.52;12.88;;;;;;;2.99;78.52;103310.72;5086756;28;20521;-72
2022/01/11 11:03:27;;;;;;;24.83;12.23;;;;;;;2.93;78.64;103306.13;5087426;28;20487;-72
2022/01/11 11:06:07;;;;;;;26.95;13.20;;;;;;;2.88;78.70;103309.38;5092847;28;20053;-71
2022/01/11 11:08:41;;;;;;;29.90;15.00;;;;;;;2.86;78.83;103321.44;5074301;28;20044;-71
2022/01/11 11:11:20;;;;;;;27.58;15.07;;;;;;;2.79;78.61;103308.16;5073727;28;20107;-71
2022/01/11 11:14:06;;;;;;;29.20;16.23;;;;;;;2.72;78.61;103300.03;5090178;28;20542;-72
2022/01/11 11:16:38;;;;;;;34.42;20.88;;;;;;;2.66;78.76;103310.16;5090357;28;20073;-71
2022/01/11 11:19:07;;;;;;;33.97;19.05;;;;;;;2.58;78.75;103308.13;5093443;28;20531;-70
2022/01/11 11:21:42;;;;;;;32.20;17.75;;;;;;;2.53;78.62;103309.69;5091289;28;20044;-71
2022/01/11 11:24:13;;;;;;;50.38;30.92;;;;;;;2.45;78.74;103309.34;5091918;28;20063;-73
2022/01/11 11:26:48;;;;;;;32.90;19.38;;;;;;;2.40;78.93;103310.84;5092077;28;20040;-71
2022/01/11 11:29:18;;;;;;;32.95;19.73;;;;;;;2.33;79.38;103303.59;5085910;28;20045;-71